Time;durP1;ratioP1;P1;durP2;ratioP2;P2;SDS_P1;SDS_P2;PMS_P1;PMS_P2;Temp;Humidity;BMP_temperature;BMP_pressure;BME280_temperature;BME280_humidity;BME280_pressure;Samples;Min_cycle;Max_cycle;Signal;HPM_P1;HPM_P2
2021/05/04 00:02:20;;;;;;;10.43;7.25;;;11.10;64.60;;;;;;5044665;28;20076;-44
2021/05/04 00:04:46;;;;;;;8.75;6.80;;;11.00;64.80;;;;;;5036852;28;20111;-46
2021/05/04 00:07:12;;;;;;;9.15;6.38;;;11.10;64.90;;;;;;5037210;28;20037;-44
2021/05/04 00:09:39;;;;;;;7.45;6.38;;;11.00;65.00;;;;;;5038660;28;20428;-44
2021/05/04 00:12:06;;;;;;;9.05;5.90;;;11.10;65.20;;;;;;5036993;28;20100;-44
2021/05/04 00:14:34;;;;;;;7.30;6.05;;;11.10;64.80;;;;;;5042981;28;20072;-43
2021/05/04 00:17:02;;;;;;;9.65;5.78;;;11.10;64.80;;;;;;5037702;28;20306;-44
2021/05/04 00:19:28;;;;;;;8.88;5.20;;;11.30;62.60;;;;;;5044747;28;20049;-43
2021/05/04 00:21:54;;;;;;;7.93;5.53;;;11.30;62.90;;;;;;5042180;28;20057;-45
2021/05/04 00:24:20;;;;;;;8.30;4.95;;;11.50;63.50;;;;;;5032772;28;20071;-45
2021/05/04 00:26:46;;;;;;;5.88;4.25;;;11.40;63.70;;;;;;5041554;28;20049;-44
2021/05/04 00:29:12;;;;;;;8.98;4.88;;;11.40;62.60;;;;;;5037439;28;20042;-43
2021/05/04 00:31:38;;;;;;;8.27;5.07;;;11.50;61.40;;;;;;5042055;28;20101;-43
2021/05/04 00:34:04;;;;;;;7.97;5.45;;;11.60;61.10;;;;;;5035757;28;20044;-43
2021/05/04 00:36:31;;;;;;;6.45;4.97;;;11.30;64.50;;;;;;5041257;28;20048;-44
2021/05/04 00:38:57;;;;;;;8.02;5.22;;;11.20;64.60;;;;;;5031420;28;20048;-42
2021/05/04 00:41:23;;;;;;;9.02;5.43;;;11.10;65.90;;;;;;5035824;28;20057;-43
2021/05/04 00:43:49;;;;;;;7.10;4.80;;;11.00;67.20;;;;;;5034297;28;20052;-45
2021/05/04 00:46:16;;;;;;;10.60;5.32;;;10.90;66.40;;;;;;5044645;28;20195;-44
2021/05/04 00:48:43;;;;;;;5.88;4.72;;;10.80;68.10;;;;;;5038696;28;20049;-44
2021/05/04 00:51:09;;;;;;;7.07;4.88;;;11.00;66.30;;;;;;5041966;28;20044;-43
2021/05/04 00:53:36;;;;;;;6.38;4.90;;;10.80;67.60;;;;;;5037739;28;20056;-44
2021/05/04 00:56:03;;;;;;;6.15;5.55;;;10.60;70.10;;;;;;5037418;28;20034;-43
2021/05/04 00:58:33;;;;;;;10.05;5.80;;;10.50;71.00;;;;;;5038945;28;20114;-43
2021/05/04 01:00:59;;;;;;;8.15;6.25;;;10.40;71.40;;;;;;5036319;28;20492;-42
2021/05/04 01:03:26;;;;;;;13.57;6.50;;;10.20;73.60;;;;;;5042032;28;20060;-43
2021/05/04 01:05:52;;;;;;;9.32;6.15;;;10.00;75.50;;;;;;5031747;28;20048;-43
2021/05/04 01:08:18;;;;;;;8.25;5.85;;;9.80;76.80;;;;;;5033800;28;20149;-42
2021/05/04 01:10:45;;;;;;;8.02;5.90;;;9.90;77.00;;;;;;5043134;28;20075;-43
2021/05/04 01:13:11;;;;;;;11.18;7.00;;;9.70;77.90;;;;;;5033242;28;20072;-44
2021/05/04 01:15:41;;;;;;;8.55;6.57;;;9.50;80.80;;;;;;5044897;28;20128;-43
2021/05/04 01:18:07;;;;;;;7.38;6.63;;;9.40;80.90;;;;;;5034890;28;20041;-46
2021/05/04 01:20:36;;;;;;;8.52;6.45;;;9.40;82.10;;;;;;5040545;28;20145;-41
2021/05/04 01:23:03;;;;;;;8.63;6.20;;;9.30;83.50;;;;;;5038845;28;20053;-44
2021/05/04 01:25:29;;;;;;;7.65;6.68;;;9.30;83.30;;;;;;5039759;28;20985;-44
2021/05/04 01:27:56;;;;;;;9.05;6.95;;;9.20;83.30;;;;;;5028637;28;20046;-43
2021/05/04 01:30:22;;;;;;;9.55;7.72;;;9.10;84.00;;;;;;5039316;28;20401;-45
2021/05/04 01:32:49;;;;;;;9.63;7.80;;;9.00;86.00;;;;;;5045253;28;20136;-41
2021/05/04 01:35:15;;;;;;;11.27;7.15;;;8.90;86.70;;;;;;5046460;28;20643;-41
2021/05/04 01:37:41;;;;;;;9.23;8.20;;;9.00;87.20;;;;;;5043048;28;20575;-41
2021/05/04 01:40:10;;;;;;;8.25;7.28;;;8.90;87.70;;;;;;5028580;28;20049;-44
2021/05/04 01:42:36;;;;;;;9.80;8.20;;;8.80;89.10;;;;;;5035264;28;20056;-42
2021/05/04 01:45:02;;;;;;;8.88;7.97;;;8.80;89.80;;;;;;5038988;28;20052;-44
2021/05/04 01:47:28;;;;;;;11.93;8.68;;;8.70;89.70;;;;;;5029845;28;20045;-44
2021/05/04 01:49:55;;;;;;;10.48;7.63;;;8.70;90.20;;;;;;5029855;28;20045;-43
2021/05/04 01:52:21;;;;;;;8.52;7.65;;;8.70;90.10;;;;;;5033681;28;20056;-44
2021/05/04 01:54:49;;;;;;;10.13;9.02;;;8.70;90.20;;;;;;5027401;28;20065;-43
2021/05/04 01:57:15;;;;;;;9.57;8.15;;;8.70;90.40;;;;;;5033223;28;20059;-42
2021/05/04 01:59:41;;;;;;;11.23;9.13;;;8.60;90.60;;;;;;5035330;28;20061;-42
2021/05/04 02:02:07;;;;;;;9.35;7.35;;;8.50;91.30;;;;;;5039212;28;20049;-42
2021/05/04 02:04:33;;;;;;;11.50;7.85;;;8.50;91.00;;;;;;5039536;28;20045;-43
2021/05/04 02:07:02;;;;;;;8.25;7.43;;;8.50;91.20;;;;;;5032495;28;20056;-41
2021/05/04 02:09:28;;;;;;;9.48;7.43;;;8.60;91.00;;;;;;5031335;28;20148;-43
2021/05/04 02:11:55;;;;;;;7.50;6.78;;;8.50;91.10;;;;;;5029270;28;20132;-40
2021/05/04 02:14:21;;;;;;;11.63;7.45;;;8.50;91.30;;;;;;5038232;28;20080;-42
2021/05/04 02:16:47;;;;;;;10.32;7.85;;;8.50;91.80;;;;;;5030492;28;20049;-42
2021/05/04 02:19:13;;;;;;;8.27;7.35;;;8.50;91.70;;;;;;5026652;28;20045;-44
2021/05/04 02:21:39;;;;;;;10.68;7.93;;;8.40;92.10;;;;;;5036221;28;20068;-42
2021/05/04 02:24:06;;;;;;;8.27;6.63;;;8.40;92.60;;;;;;5023010;28;20107;-41
2021/05/04 02:26:46;;;;;;;9.52;7.93;;;8.40;92.30;;;;;;5036708;28;20119;-44
2021/05/04 02:29:13;;;;;;;12.65;7.78;;;8.20;93.30;;;;;;5038150;28;20566;-44
2021/05/04 02:31:39;;;;;;;11.30;8.07;;;8.20;93.10;;;;;;5038568;28;20131;-39
2021/05/04 02:34:05;;;;;;;8.00;7.15;;;8.20;94.20;;;;;;5042156;28;20061;-40
2021/05/04 02:36:31;;;;;;;11.02;8.32;;;8.10;94.00;;;;;;5021530;28;20046;-38
2021/05/04 02:38:57;;;;;;;11.40;7.65;;;8.10;94.40;;;;;;5029106;28;20050;-40
2021/05/04 02:41:24;;;;;;;8.75;7.25;;;8.10;94.30;;;;;;5035668;28;20057;-38
2021/05/04 02:43:50;;;;;;;10.75;8.15;;;8.10;94.80;;;;;;5034943;28;20060;-39
2021/05/04 02:46:16;;;;;;;9.35;7.25;;;8.10;94.90;;;;;;5024282;28;20059;-39
2021/05/04 02:48:43;;;;;;;8.70;6.82;;;8.00;95.10;;;;;;5031927;28;20038;-38
2021/05/04 02:51:11;;;;;;;14.90;7.55;;;8.00;95.00;;;;;;5040688;28;20095;-38
2021/05/04 02:53:38;;;;;;;8.80;7.65;;;8.00;95.30;;;;;;5043270;28;20090;-39
2021/05/04 02:56:06;;;;;;;10.85;7.20;;;8.00;95.30;;;;;;5038917;28;20041;-38
2021/05/04 02:58:35;;;;;;;11.40;7.95;;;8.00;95.40;;;;;;5031384;28;20099;-39
2021/05/04 03:01:02;;;;;;;14.05;7.45;;;8.00;95.70;;;;;;5037325;28;20045;-39
2021/05/04 03:03:28;;;;;;;10.75;7.60;;;8.00;95.20;;;;;;5032761;28;20069;-39
2021/05/04 03:05:54;;;;;;;8.02;7.22;;;8.00;96.30;;;;;;5037214;28;20052;-39
2021/05/04 03:08:21;;;;;;;12.25;7.70;;;8.00;96.00;;;;;;5038957;28;20053;-40
2021/05/04 03:10:47;;;;;;;7.82;6.72;;;8.00;95.90;;;;;;5038992;28;20045;-40
2021/05/04 03:13:14;;;;;;;9.18;7.53;;;8.00;95.70;;;;;;5040035;28;20053;-39
2021/05/04 03:15:40;;;;;;;12.30;7.40;;;8.00;95.90;;;;;;5047503;28;20535;-40
2021/05/04 03:18:07;;;;;;;10.60;7.32;;;8.10;95.60;;;;;;5045682;28;20076;-39
2021/05/04 03:20:33;;;;;;;9.40;7.70;;;8.10;95.80;;;;;;5037215;28;20116;-39
2021/05/04 03:22:59;;;;;;;10.55;7.72;;;8.00;96.20;;;;;;5043214;28;20057;-39
2021/05/04 03:25:25;;;;;;;8.25;7.15;;;8.00;96.30;;;;;;5034053;28;20052;-39
2021/05/04 03:27:54;;;;;;;9.88;8.88;;;8.00;96.30;;;;;;5035058;28;20053;-39
2021/05/04 03:30:23;;;;;;;13.52;7.38;;;8.00;96.40;;;;;;5034755;28;20454;-40
2021/05/04 03:32:49;;;;;;;10.05;8.43;;;8.00;96.70;;;;;;5039202;28;20052;-42
2021/05/04 03:35:15;;;;;;;9.73;8.27;;;7.90;96.40;;;;;;5042827;28;20049;-39
2021/05/04 03:37:42;;;;;;;10.70;7.47;;;8.00;96.70;;;;;;5033771;28;20406;-39
2021/05/04 03:40:08;;;;;;;10.20;8.15;;;7.90;96.60;;;;;;5038928;28;20042;-39
2021/05/04 03:42:34;;;;;;;9.13;8.23;;;8.00;96.60;;;;;;5043305;28;20135;-40
2021/05/04 03:45:00;;;;;;;11.63;8.18;;;7.90;97.20;;;;;;5042131;28;20057;-38
2021/05/04 03:47:27;;;;;;;10.20;9.10;;;8.00;96.80;;;;;;5032265;28;20041;-39
2021/05/04 03:49:54;;;;;;;9.38;7.57;;;8.00;96.90;;;;;;5037330;28;20038;-39
2021/05/04 03:52:20;;;;;;;9.23;7.95;;;8.00;96.80;;;;;;5029834;28;20132;-39
2021/05/04 03:54:49;;;;;;;11.23;8.25;;;8.00;96.60;;;;;;5042672;28;20186;-39
2021/05/04 03:57:15;;;;;;;9.05;8.07;;;8.10;96.80;;;;;;5036712;28;20129;-38
2021/05/04 03:59:43;;;;;;;9.98;8.38;;;8.10;96.70;;;;;;5034494;28;20049;-38
2021/05/04 04:02:10;;;;;;;10.57;8.75;;;8.10;97.00;;;;;;5038341;28;20126;-39
2021/05/04 04:04:40;;;;;;;10.65;9.55;;;8.00;97.20;;;;;;5036242;28;20485;-41
2021/05/04 04:07:06;;;;;;;11.30;8.82;;;8.00;97.30;;;;;;5028041;28;20060;-39
2021/05/04 04:09:32;;;;;;;12.13;9.32;;;8.00;97.50;;;;;;5033512;28;20045;-39
2021/05/04 04:11:58;;;;;;;11.48;9.13;;;8.00;97.60;;;;;;5038423;28;20061;-39
2021/05/04 04:14:25;;;;;;;9.77;8.75;;;8.10;97.60;;;;;;5042141;28;20049;-39
2021/05/04 04:16:51;;;;;;;9.88;8.80;;;8.00;97.40;;;;;;5046932;28;20470;-39
2021/05/04 04:19:18;;;;;;;13.85;8.35;;;8.00;97.50;;;;;;5042454;28;20567;-39
2021/05/04 04:21:44;;;;;;;9.13;8.15;;;8.10;97.60;;;;;;5047605;28;20128;-39
2021/05/04 04:24:10;;;;;;;10.00;7.40;;;8.00;97.60;;;;;;5031020;28;20064;-39
2021/05/04 04:26:36;;;;;;;9.15;8.15;;;8.10;97.50;;;;;;5034063;28;20069;-39
2021/05/04 04:29:03;;;;;;;10.50;8.43;;;8.10;97.50;;;;;;5039743;28;20068;-39
2021/05/04 04:31:29;;;;;;;10.02;9.05;;;8.10;97.70;;;;;;5036348;28;20095;-39
2021/05/04 04:33:55;;;;;;;12.68;8.48;;;8.10;97.40;;;;;;5039474;28;20050;-39
2021/05/04 04:36:22;;;;;;;10.88;8.45;;;8.20;97.20;;;;;;5039026;28;20091;-38
2021/05/04 04:38:48;;;;;;;9.93;7.55;;;8.20;97.20;;;;;;5032230;28;20084;-39
2021/05/04 04:41:14;;;;;;;11.50;7.65;;;8.20;97.30;;;;;;5033111;28;20822;-38
2021/05/04 04:43:40;;;;;;;8.40;7.60;;;8.20;97.30;;;;;;5043079;28;20064;-38
2021/05/04 04:46:06;;;;;;;9.63;8.63;;;8.20;97.20;;;;;;5046806;28;20057;-38
2021/05/04 04:48:32;;;;;;;11.40;8.18;;;8.20;97.40;;;;;;5043471;28;20041;-39
2021/05/04 04:50:58;;;;;;;10.45;8.52;;;8.20;97.50;;;;;;5035636;28;20786;-41
2021/05/04 04:53:24;;;;;;;10.82;9.48;;;8.20;97.50;;;;;;5029022;28;20087;-41
2021/05/04 04:55:51;;;;;;;9.40;8.40;;;8.10;97.80;;;;;;5048816;28;20120;-40
2021/05/04 04:58:17;;;;;;;9.88;7.50;;;8.10;97.60;;;;;;5031616;28;20108;-39
2021/05/04 05:00:43;;;;;;;9.32;8.02;;;8.10;97.60;;;;;;5038279;28;20056;-41
2021/05/04 05:03:09;;;;;;;10.05;8.27;;;8.10;97.70;;;;;;5033638;28;20063;-41
2021/05/04 05:05:35;;;;;;;9.57;7.55;;;8.20;97.70;;;;;;5042716;28;20049;-40
2021/05/04 05:08:02;;;;;;;9.77;7.95;;;8.20;97.40;;;;;;5034951;28;20132;-39
2021/05/04 05:10:28;;;;;;;8.18;7.20;;;8.20;97.40;;;;;;5041209;28;20049;-42
2021/05/04 05:13:06;;;;;;;9.65;7.95;;;8.30;97.00;;;;;;5034474;28;20156;-43
2021/05/04 05:15:39;;;;;;;9.07;7.43;;;8.30;97.10;;;;;;5034039;28;20056;-38
2021/05/04 05:18:06;;;;;;;8.07;7.05;;;8.30;97.00;;;;;;5034635;28;20045;-38
2021/05/04 05:20:35;;;;;;;7.25;6.55;;;8.40;96.90;;;;;;5040338;28;20045;-38
2021/05/04 05:23:01;;;;;;;7.85;6.47;;;8.50;96.60;;;;;;5039112;28;20588;-38
2021/05/04 05:25:31;;;;;;;8.10;6.72;;;8.50;96.30;;;;;;5040989;28;20135;-39
2021/05/04 05:27:59;;;;;;;7.80;5.80;;;8.60;96.20;;;;;;5037319;28;20052;-39
2021/05/04 05:30:25;;;;;;;11.35;7.18;;;8.60;95.90;;;;;;5036419;28;20744;-39
2021/05/04 05:32:52;;;;;;;7.05;5.80;;;8.70;95.80;;;;;;5038782;28;20050;-39
2021/05/04 05:35:20;;;;;;;8.50;6.88;;;8.60;95.80;;;;;;5044671;28;20057;-41
2021/05/04 05:37:47;;;;;;;10.65;7.85;;;8.60;96.10;;;;;;5044853;28;20106;-37
2021/05/04 05:40:13;;;;;;;8.73;7.07;;;8.70;95.90;;;;;;5043772;28;20386;-38
2021/05/04 05:42:42;;;;;;;18.60;8.68;;;8.60;96.00;;;;;;5045588;28;20580;-39
2021/05/04 05:45:14;;;;;;;15.98;9.20;;;8.60;96.40;;;;;;5046080;28;20049;-37
2021/05/04 05:47:42;;;;;;;8.75;6.63;;;8.70;96.20;;;;;;5045619;28;20053;-38
2021/05/04 05:50:09;;;;;;;8.55;7.30;;;8.70;96.10;;;;;;5045560;28;20187;-42
2021/05/04 05:52:35;;;;;;;7.70;6.90;;;8.70;96.30;;;;;;5043625;28;20048;-42
2021/05/04 05:55:07;;;;;;;9.20;7.10;;;8.60;96.80;;;;;;5024621;28;20053;-42
2021/05/04 05:57:38;;;;;;;;;;;8.60;96.80;;;;;;5040523;28;20047;-41
2021/05/04 06:00:08;;;;;;;18.33;15.23;;;8.50;96.80;;;;;;5040149;28;19925;-44
2021/05/04 06:02:42;;;;;;;15.27;10.68;;;8.50;96.70;;;;;;5033579;28;20148;-44
2021/05/04 06:05:09;;;;;;;8.93;8.00;;;8.50;96.60;;;;;;5041589;28;20468;-44
2021/05/04 06:07:36;;;;;;;9.30;6.72;;;8.60;96.80;;;;;;5039315;28;20536;-42
2021/05/04 06:10:12;;;;;;;8.43;6.10;;;8.70;96.40;;;;;;5035846;28;20102;-43
2021/05/04 06:12:44;;;;;;;9.73;5.90;;;8.70;96.30;;;;;;5042303;28;20064;-42
2021/05/04 06:15:14;;;;;;;7.65;5.63;;;8.80;96.50;;;;;;5031638;28;20052;-43
2021/05/04 06:17:41;;;;;;;5.72;4.90;;;8.90;95.90;;;;;;5036875;28;20052;-41
2021/05/04 06:20:11;;;;;;;6.07;5.45;;;8.90;95.40;;;;;;5034893;28;20950;-43
2021/05/04 06:22:42;;;;;;;7.60;5.85;;;9.00;95.50;;;;;;5037994;28;20152;-42
2021/05/04 06:25:09;;;;;;;7.75;6.05;;;9.10;95.80;;;;;;5042744;28;20060;-41
2021/05/04 06:27:50;;;;;;;10.05;6.28;;;9.10;95.90;;;;;;5034226;28;20045;-42
2021/05/04 06:30:17;;;;;;;6.32;5.72;;;9.40;95.60;;;;;;5048710;28;20409;-42
2021/05/04 06:32:43;;;;;;;7.13;5.63;;;9.50;95.10;;;;;;5044423;28;20045;-43
2021/05/04 06:35:19;;;;;;;12.73;10.43;;;9.50;95.50;;;;;;5050266;28;20052;-41
2021/05/04 06:37:46;;;;;;;9.32;7.22;;;9.40;94.80;;;;;;5043417;28;20045;-44
2021/05/04 06:40:14;;;;;;;7.60;5.78;;;9.40;94.90;;;;;;5036661;28;20441;-42
2021/05/04 06:42:41;;;;;;;10.32;6.35;;;9.40;94.50;;;;;;5043644;28;20131;-41
2021/05/04 06:45:13;;;;;;;7.15;5.35;;;9.50;94.80;;;;;;5003813;28;20405;-41
2021/05/04 06:47:39;;;;;;;8.57;5.85;;;9.60;94.10;;;;;;5046012;28;20496;-42
2021/05/04 06:50:16;;;;;;;9.05;5.32;;;9.60;94.10;;;;;;5045595;28;20037;-39
2021/05/04 06:52:46;;;;;;;8.38;5.13;;;9.50;94.00;;;;;;5037416;28;20841;-39
2021/05/04 06:55:12;;;;;;;9.10;5.53;;;9.50;94.30;;;;;;5044399;28;20068;-38
2021/05/04 06:57:40;;;;;;;9.05;4.78;;;9.60;94.00;;;;;;5039027;28;20061;-38
2021/05/04 07:00:08;;;;;;;9.98;4.70;;;9.50;93.50;;;;;;5043872;28;20455;-38
2021/05/04 07:02:35;;;;;;;12.98;5.32;;;9.60;93.60;;;;;;5044726;28;20045;-38
2021/05/04 07:05:03;;;;;;;11.77;4.82;;;9.60;93.40;;;;;;5042731;28;20041;-38
2021/05/04 07:07:29;;;;;;;11.15;4.80;;;9.70;93.50;;;;;;5043442;28;20053;-38
2021/05/04 07:09:55;;;;;;;15.85;5.00;;;9.70;92.70;;;;;;5047610;28;20064;-38
2021/05/04 07:12:21;;;;;;;11.23;4.25;;;9.90;92.70;;;;;;5029624;28;20053;-39
2021/05/04 07:14:47;;;;;;;13.18;4.43;;;10.00;91.60;;;;;;5048472;28;20084;-39
2021/05/04 07:17:14;;;;;;;10.80;4.28;;;10.00;91.10;;;;;;5048357;28;20526;-36
2021/05/04 07:19:41;;;;;;;9.85;4.32;;;10.00;91.50;;;;;;5048287;28;20053;-37
2021/05/04 07:22:11;;;;;;;10.27;3.95;;;9.90;91.90;;;;;;5047375;28;20052;-37
2021/05/04 07:24:40;;;;;;;14.05;4.65;;;9.90;91.80;;;;;;5046033;28;20041;-37
2021/05/04 07:27:06;;;;;;;12.55;4.57;;;9.90;91.60;;;;;;5040858;28;20053;-39
2021/05/04 07:29:36;;;;;;;16.65;5.00;;;9.90;92.10;;;;;;5036193;28;20045;-38
2021/05/04 07:32:03;;;;;;;13.63;5.03;;;10.00;91.80;;;;;;5039775;28;20599;-38
2021/05/04 07:34:31;;;;;;;14.38;4.18;;;10.20;91.20;;;;;;5039437;28;20049;-39
2021/05/04 07:36:58;;;;;;;14.43;4.53;;;10.30;90.80;;;;;;5046389;28;20053;-38
2021/05/04 07:39:27;;;;;;;13.52;4.85;;;10.20;91.60;;;;;;5041575;28;20045;-40
2021/05/04 07:41:53;;;;;;;13.68;4.85;;;10.00;92.10;;;;;;5043777;28;20399;-39
2021/05/04 07:44:22;;;;;;;15.93;4.47;;;9.90;92.80;;;;;;5042930;28;20127;-38
2021/05/04 07:46:49;;;;;;;13.00;4.25;;;9.90;93.30;;;;;;5046009;28;20409;-39
2021/05/04 07:49:22;;;;;;;15.18;3.85;;;10.10;92.50;;;;;;5024670;28;20121;-39
2021/05/04 07:51:48;;;;;;;10.77;2.85;;;10.20;92.10;;;;;;5039195;28;20051;-37
2021/05/04 07:54:17;;;;;;;12.73;3.42;;;10.20;91.30;;;;;;5045860;28;20080;-37
2021/05/04 07:56:46;;;;;;;11.68;3.15;;;10.20;90.90;;;;;;5048229;28;20056;-38
2021/05/04 07:59:15;;;;;;;10.07;3.67;;;10.20;91.30;;;;;;5045008;28;20049;-38
2021/05/04 08:01:41;;;;;;;10.15;3.55;;;10.20;91.10;;;;;;5038775;28;20053;-37
2021/05/04 08:04:10;;;;;;;12.77;3.55;;;10.20;91.10;;;;;;5044467;28;20083;-38
2021/05/04 08:06:36;;;;;;;12.15;3.70;;;10.30;91.30;;;;;;5045688;28;20053;-39
2021/05/04 08:09:07;;;;;;;13.65;3.63;;;10.40;91.20;;;;;;5047476;28;20497;-39
2021/05/04 08:11:36;;;;;;;12.18;2.92;;;10.40;91.20;;;;;;5036665;28;20049;-39
2021/05/04 08:14:11;;;;;;;12.65;2.78;;;10.30;90.20;;;;;;5041606;28;20498;-40
2021/05/04 08:16:38;;;;;;;13.07;3.90;;;10.20;90.30;;;;;;5031948;28;20156;-39
2021/05/04 08:19:07;;;;;;;10.60;2.58;;;10.10;90.40;;;;;;5044643;28;20079;-39
2021/05/04 08:21:35;;;;;;;10.52;3.30;;;10.00;90.40;;;;;;5038645;28;20087;-39
2021/05/04 08:24:06;;;;;;;10.48;2.45;;;10.00;90.70;;;;;;5046643;28;20047;-39
2021/05/04 08:26:35;;;;;;;11.27;3.10;;;10.30;90.60;;;;;;5042821;28;20041;-39
2021/05/04 08:29:11;;;;;;;14.48;3.58;;;10.80;90.50;;;;;;5046926;28;20118;-38
2021/05/04 08:31:41;;;;;;;15.68;2.92;;;11.10;88.70;;;;;;5046038;28;20135;-39
2021/05/04 08:34:07;;;;;;;12.63;3.80;;;11.40;88.80;;;;;;5045801;28;20053;-39
2021/05/04 08:36:34;;;;;;;12.50;4.20;;;11.60;88.30;;;;;;5029263;28;20532;-39
2021/05/04 08:39:01;;;;;;;9.27;2.97;;;11.50;86.70;;;;;;5043596;28;20099;-38
2021/05/04 08:41:28;;;;;;;13.30;3.45;;;11.10;87.20;;;;;;5034879;28;20056;-38
2021/05/04 08:43:56;;;;;;;11.55;3.53;;;11.00;87.00;;;;;;5046249;28;20057;-38
2021/05/04 08:46:24;;;;;;;10.60;4.03;;;11.40;89.00;;;;;;5046035;28;20075;-39
2021/05/04 08:48:56;;;;;;;11.27;3.80;;;11.80;87.60;;;;;;5045849;28;20056;-39
2021/05/04 08:51:27;;;;;;;15.65;4.65;;;11.50;85.60;;;;;;5042843;28;20048;-38
2021/05/04 08:53:57;;;;;;;21.08;4.70;;;10.90;88.60;;;;;;5035503;28;20075;-38
2021/05/04 08:56:26;;;;;;;16.17;6.38;;;10.40;92.00;;;;;;5038710;28;20051;-39
2021/05/04 08:58:55;;;;;;;14.85;4.28;;;10.10;93.80;;;;;;5043652;28;20513;-40
2021/05/04 09:01:21;;;;;;;9.07;2.72;;;9.80;94.90;;;;;;5042260;28;20059;-42
2021/05/04 09:03:50;;;;;;;7.43;2.25;;;9.30;94.40;;;;;;5037420;28;20044;-44
2021/05/04 09:06:29;;;;;;;10.85;2.22;;;8.90;94.50;;;;;;5034615;28;20565;-40
2021/05/04 09:09:09;;;;;;;8.48;2.10;;;8.80;95.20;;;;;;5040930;28;20057;-42
2021/05/04 09:43:47;;;;;;;13.40;4.25;;;9.00;94.80;;;;;;5073264;27;828911;-39
2021/05/04 09:46:16;;;;;;;9.25;2.95;;;11.50;92.30;;;;;;5067898;28;20048;-39
2021/05/04 09:48:43;;;;;;;10.05;3.25;;;11.60;91.60;;;;;;5083456;28;20048;-39
2021/05/04 09:51:21;;;;;;;10.05;3.50;;;11.30;92.00;;;;;;5081851;28;20217;-40
2021/05/04 09:56:40;;;;;;;18.25;4.72;;;10.90;92.80;;;;;;5076309;28;20070;-39
2021/05/04 09:59:06;;;;;;;15.73;4.90;;;10.60;92.60;;;;;;5081892;28;20159;-40
2021/05/04 10:01:32;;;;;;;13.02;4.40;;;10.60;93.90;;;;;;5064351;28;20053;-39
2021/05/04 10:04:03;;;;;;;7.50;2.63;;;10.80;93.70;;;;;;5081728;28;20133;-39
2021/05/04 10:06:30;;;;;;;9.90;2.97;;;10.90;90.70;;;;;;5077755;28;20608;-39
2021/05/04 10:09:02;;;;;;;12.38;3.58;;;11.40;90.60;;;;;;5080146;28;20496;-40
2021/05/04 10:11:31;;;;;;;7.13;2.60;;;12.00;91.00;;;;;;5080319;28;20041;-39
2021/05/04 10:14:04;;;;;;;9.57;2.47;;;12.40;89.10;;;;;;5078225;28;20104;-40
2021/05/04 10:16:31;;;;;;;9.05;2.67;;;12.20;85.00;;;;;;5085248;28;20044;-39
2021/05/04 10:19:06;;;;;;;10.40;3.05;;;12.10;85.70;;;;;;5081659;28;20048;-39
2021/05/04 10:21:33;;;;;;;8.27;2.72;;;11.90;86.00;;;;;;5082210;28;20044;-40
2021/05/04 10:24:02;;;;;;;9.40;3.72;;;11.80;88.90;;;;;;5080660;28;20098;-40
2021/05/04 10:26:33;;;;;;;12.57;3.50;;;11.60;88.60;;;;;;5080107;28;20399;-40
2021/05/04 10:29:04;;;;;;;8.65;2.75;;;11.40;90.30;;;;;;5087178;28;20488;-39
2021/05/04 10:31:43;;;;;;;9.52;2.50;;;10.90;90.60;;;;;;5081564;28;20044;-41
2021/05/04 10:34:26;;;;;;;9.45;2.88;;;10.30;91.10;;;;;;5082437;28;20059;-40
2021/05/04 10:36:57;;;;;;;7.25;2.55;;;10.00;92.80;;;;;;5081606;28;20040;-40
2021/05/04 10:39:46;;;;;;;13.95;3.60;;;9.80;93.20;;;;;;5082587;28;20040;-39
2021/05/04 10:42:17;;;;;;;12.98;4.03;;;9.50;94.30;;;;;;5081032;28;20048;-45
2021/05/04 10:44:54;;;;;;;;;;;9.20;95.00;;;;;;5066085;28;20053;-42
2021/05/04 10:47:42;;;;;;;4.22;1.25;;;8.30;95.90;;;;;;5067315;28;19928;-44
2021/05/04 10:50:27;;;;;;;4.15;1.08;;;7.90;97.00;;;;;;5069291;28;20052;-44
2021/05/04 10:52:57;;;;;;;2.88;1.10;;;7.70;97.00;;;;;;5069182;28;20048;-43
2021/05/04 10:55:26;;;;;;;4.75;1.13;;;7.60;97.50;;;;;;5068253;28;20079;-42
2021/05/04 10:58:00;;;;;;;3.47;1.05;;;7.60;97.90;;;;;;5068760;28;20048;-45
2021/05/04 11:01:01;;;;;;;6.57;1.75;;;7.90;98.40;;;;;;5068853;28;20737;-45
2021/05/04 11:03:33;;;;;;;4.18;1.90;;;8.10;97.90;;;;;;5070680;28;20385;-42
2021/05/04 11:06:22;;;;;;;5.32;2.17;;;8.60;97.80;;;;;;5067946;28;20814;-45
2021/05/04 11:08:51;;;;;;;8.85;3.30;;;9.20;97.70;;;;;;5067373;28;20123;-42
2021/05/04 11:11:29;;;;;;;7.07;2.22;;;9.40;96.30;;;;;;5066680;28;20080;-42
2021/05/04 11:14:01;;;;;;;8.73;3.55;;;9.60;96.30;;;;;;5067061;28;20048;-41
2021/05/04 11:16:41;;;;;;;11.30;3.63;;;9.90;95.50;;;;;;5061422;28;20033;-40
2021/05/04 11:19:41;;;;;;;17.20;9.30;;;10.00;94.90;;;;;;5065580;28;20048;-39
2021/05/04 11:22:20;;;;;;;8.20;3.33;;;10.00;93.20;;;;;;5067721;28;20048;-39
2021/05/04 11:24:54;;;;;;;11.27;3.90;;;10.20;91.20;;;;;;5052987;28;20040;-38
2021/05/04 11:27:26;;;;;;;10.00;3.53;;;10.50;90.80;;;;;;5066975;28;20067;-38
2021/05/04 11:30:01;;;;;;;9.15;3.55;;;10.00;90.70;;;;;;5068664;28;20040;-38
2021/05/04 11:32:39;;;;;;;8.90;2.45;;;9.60;91.20;;;;;;5068229;28;20044;-39
2021/05/04 11:35:07;;;;;;;7.63;2.90;;;9.20;90.30;;;;;;5068365;28;20040;-38
2021/05/04 11:37:43;;;;;;;10.50;2.15;;;9.10;91.40;;;;;;5067557;28;20044;-38
2021/05/04 11:40:20;;;;;;;5.28;2.50;;;8.80;92.00;;;;;;5070290;28;20133;-38
2021/05/04 11:42:55;;;;;;;5.13;1.90;;;8.90;93.50;;;;;;5067324;28;20056;-38
2021/05/04 11:45:29;;;;;;;4.53;1.65;;;8.80;92.50;;;;;;5065888;28;20054;-38
2021/05/04 11:48:04;;;;;;;7.35;1.85;;;8.90;93.20;;;;;;5068057;28;20044;-39
2021/05/04 11:50:38;;;;;;;5.95;1.92;;;9.40;92.30;;;;;;5068285;28;20044;-39
2021/05/04 11:53:10;;;;;;;8.45;2.13;;;9.90;91.80;;;;;;5067937;28;20056;-40
2021/05/04 11:55:37;;;;;;;8.60;2.10;;;10.50;92.30;;;;;;5066142;28;20036;-39
2021/05/04 11:58:18;;;;;;;11.45;3.00;;;10.60;90.00;;;;;;5060438;28;20569;-39
2021/05/04 12:00:45;;;;;;;7.10;2.40;;;10.90;90.40;;;;;;5060842;28;20157;-39
2021/05/04 12:03:16;;;;;;;11.18;2.65;;;10.30;89.90;;;;;;5067611;28;20424;-43
2021/05/04 12:05:44;;;;;;;8.57;2.38;;;9.70;93.10;;;;;;5067895;28;20511;-41
2021/05/04 12:08:14;;;;;;;4.40;1.70;;;9.00;93.90;;;;;;5067370;28;20052;-43
2021/05/04 12:10:50;;;;;;;5.57;2.08;;;8.10;93.20;;;;;;5066335;28;20155;-43
2021/05/04 12:13:20;;;;;;;5.80;2.22;;;7.90;94.30;;;;;;5066761;28;20075;-42
2021/05/04 12:15:52;;;;;;;4.95;1.58;;;7.70;95.20;;;;;;5065323;28;20492;-43
2021/05/04 12:18:28;;;;;;;3.72;1.50;;;7.50;94.90;;;;;;5067807;28;20047;-45
2021/05/04 12:20:59;;;;;;;5.15;2.15;;;7.30;95.30;;;;;;5064864;28;20119;-41
2021/05/04 12:23:36;;;;;;;6.43;3.03;;;7.40;95.40;;;;;;5066313;28;20044;-42
2021/05/04 12:26:08;;;;;;;8.55;2.33;;;7.20;96.30;;;;;;5066187;28;20048;-41
2021/05/04 12:28:56;;;;;;;5.47;2.20;;;7.20;96.30;;;;;;5059373;28;20773;-41
2021/05/04 12:31:32;;;;;;;7.70;2.75;;;7.40;97.20;;;;;;5066480;28;20048;-41
2021/05/04 12:34:04;;;;;;;5.65;2.17;;;7.70;97.20;;;;;;5066067;28;20041;-40
2021/05/04 12:36:43;;;;;;;9.10;3.15;;;7.80;96.40;;;;;;5072519;28;20113;-42
2021/05/04 12:39:28;;;;;;;7.45;3.03;;;8.10;97.10;;;;;;5065393;28;20066;-40
2021/05/04 12:42:02;;;;;;;5.57;2.95;;;8.60;95.90;;;;;;5066468;28;20040;-40
2021/05/04 12:44:33;;;;;;;7.00;2.67;;;8.80;95.20;;;;;;5047827;28;20052;-40
2021/05/04 12:47:14;;;;;;;7.63;3.13;;;8.60;94.00;;;;;;5065307;28;20373;-39
2021/05/04 12:49:44;;;;;;;7.83;2.53;;;8.40;95.00;;;;;;5066987;28;20898;-40
2021/05/04 12:52:16;;;;;;;6.07;2.78;;;8.30;94.70;;;;;;5065783;28;20052;-39
2021/05/04 12:54:44;;;;;;;6.55;2.85;;;8.30;95.30;;;;;;5070220;28;20051;-39
2021/05/04 12:57:19;;;;;;;7.47;2.33;;;8.20;94.10;;;;;;5065317;28;20045;-39
2021/05/04 12:59:45;;;;;;;5.28;2.20;;;8.20;94.70;;;;;;5066778;28;20151;-39
2021/05/04 13:02:24;;;;;;;9.52;2.88;;;8.10;95.10;;;;;;5057443;28;20052;-39
2021/05/04 13:19:29;;;;;;;13.27;4.10;;;7.20;96.90;;;;;;5065096;28;20055;-40
2021/05/04 13:32:58;;;;;;;11.98;3.78;;;7.70;97.90;;;;;;5052248;28;20079;-40
2021/05/04 13:35:27;;;;;;;9.80;4.03;;;7.80;97.70;;;;;;5052335;28;20174;-39
2021/05/04 13:48:26;;;;;;;9.50;3.80;;;8.00;96.40;;;;;;5068134;28;20048;-39
2021/05/04 13:50:54;;;;;;;11.27;3.35;;;8.10;97.00;;;;;;5064237;28;20045;-39
2021/05/04 13:53:20;;;;;;;10.27;3.90;;;8.10;96.50;;;;;;5065785;28;20052;-39
2021/05/04 13:55:47;;;;;;;9.82;3.50;;;8.20;96.50;;;;;;5065712;28;20095;-39
2021/05/04 13:58:17;;;;;;;10.57;3.10;;;8.20;96.20;;;;;;5065244;28;20052;-39
2021/05/04 14:01:03;;;;;;;9.32;3.38;;;8.20;96.40;;;;;;5067209;28;20052;-38
2021/05/04 14:03:40;;;;;;;10.32;3.70;;;8.20;96.60;;;;;;5066137;28;20076;-38
2021/05/04 14:28:10;;;;;;;9.27;3.20;;;8.50;94.80;;;;;;5006942;28;20477;-37
2021/05/04 14:30:36;;;;;;;6.97;3.03;;;8.60;94.60;;;;;;5007529;28;20053;-37
2021/05/04 14:33:03;;;;;;;6.97;2.65;;;8.70;94.40;;;;;;5008682;28;20046;-37
2021/05/04 14:35:36;;;;;;;7.88;3.28;;;8.90;94.80;;;;;;5018362;28;20081;-39